Time;durP1;ratioP1;P1;durP2;ratioP2;P2;SDS_P1;SDS_P2;PMS_P1;PMS_P2;Temp;Humidity;BMP_temperature;BMP_pressure;BME280_temperature;BME280_humidity;BME280_pressure;Samples;Min_cycle;Max_cycle;Signal;HPM_P1;HPM_P2
2022/01/29 00:01:16;;;;;;;7.53;4.53;;;8.00;99.90;;;;;;5027288;28;20457;-83
2022/01/29 00:04:31;;;;;;;6.90;5.07;;;8.10;99.90;;;;;;4968920;28;20492;-83
2022/01/29 00:15:07;;;;;;;8.83;5.87;;;8.10;99.90;;;;;;4950150;28;20464;-83
2022/01/29 00:18:07;;;;;;;7.53;4.90;;;8.10;99.90;;;;;;5037668;23;21028;-82
2022/01/29 00:21:27;;;;;;;;;;;;;;;;;;;;;
2022/01/29 00:24:00;;;;;;;10.93;5.10;;;8.20;99.90;;;;;;5052803;28;20487;-82
2022/01/29 00:26:54;;;;;;;10.87;5.13;;;8.10;99.90;;;;;;5095100;22;20489;-82
2022/01/29 00:30:16;;;;;;;10.40;5.67;;;8.20;99.90;;;;;;5046480;28;20485;-84
2022/01/29 00:36:36;;;;;;;8.27;4.57;;;8.00;99.90;;;;;;5009075;28;20469;-81
2022/01/29 00:39:06;;;;;;;6.87;4.10;;;7.90;99.90;;;;;;5019583;28;20533;-84
2022/01/29 00:41:42;;;;;;;7.83;5.57;;;8.40;99.90;;;;;;5020128;28;20442;-82
2022/01/29 00:44:44;;;;;;;8.77;5.83;;;8.30;99.90;;;;;;5032471;28;21011;-83
2022/01/29 00:47:37;;;;;;;10.43;6.40;;;8.40;99.90;;;;;;5016497;28;20632;-81
2022/01/29 00:50:21;;;;;;;11.70;6.97;;;8.20;99.90;;;;;;5020345;28;20532;-82
2022/01/29 00:53:18;;;;;;;13.50;7.77;;;8.10;99.90;;;;;;5032332;28;20464;-83
2022/01/29 01:07:00;;;;;;;13.90;7.80;;;7.90;99.90;;;;;;5039377;28;20481;-84
2022/01/29 01:09:51;;;;;;;15.70;7.80;;;8.00;99.90;;;;;;5037671;28;20461;-86
2022/01/29 01:12:50;;;;;;;13.00;8.57;;;7.90;99.90;;;;;;5026908;28;20447;-84
2022/01/29 01:16:07;;;;;;;14.83;8.40;;;7.80;99.90;;;;;;5029896;28;20445;-80
2022/01/29 01:19:06;;;;;;;13.93;8.53;;;7.90;99.90;;;;;;4950449;28;20452;-84
2022/01/29 01:22:20;;;;;;;13.07;9.10;;;7.90;99.90;;;;;;4947353;28;20903;-79
2022/01/29 01:25:38;;;;;;;15.60;9.13;;;7.90;99.90;;;;;;4940672;28;20599;-84
2022/01/29 01:29:26;;;;;;;17.40;8.60;;;8.00;99.90;;;;;;4949800;28;20480;-83
2022/01/29 01:32:20;;;;;;;14.00;8.40;;;8.00;99.90;;;;;;4954301;28;21025;-83
2022/01/29 01:35:45;;;;;;;13.10;9.20;;;7.90;99.90;;;;;;4952522;28;20485;-86
2022/01/29 01:39:02;;;;;;;14.23;8.67;;;8.00;99.90;;;;;;4925899;28;21023;-84
2022/01/29 01:42:08;;;;;;;14.80;8.50;;;8.10;99.90;;;;;;4906508;28;20544;-81
2022/01/29 01:45:11;;;;;;;16.13;10.37;;;8.00;99.90;;;;;;4971476;23;20873;-82
2022/01/29 01:48:09;;;;;;;17.50;10.23;;;8.10;99.90;;;;;;5004410;28;20498;-81
2022/01/29 01:50:55;;;;;;;14.27;9.70;;;8.10;99.90;;;;;;5035148;28;20468;-81
2022/01/29 01:57:09;;;;;;;13.10;9.37;;;8.00;99.90;;;;;;5034970;28;20523;-82
2022/01/29 02:00:21;;;;;;;16.10;9.77;;;8.40;99.90;;;;;;5032726;28;20466;-83
2022/01/29 02:13:43;;;;;;;16.27;10.20;;;8.60;99.90;;;;;;4944951;28;20550;-84
2022/01/29 02:17:23;;;;;;;;;;;;;;;;;;;;;
2022/01/29 02:24:09;;;;;;;17.53;11.43;;;8.70;99.90;;;;;;4940826;28;20601;-84
2022/01/29 02:35:19;;;;;;;16.73;10.77;;;8.40;99.90;;;;;;4938286;29;20466;-83
2022/01/29 02:38:06;;;;;;;16.57;10.27;;;8.30;99.90;;;;;;4902190;29;20462;-82
2022/01/29 02:44:31;;;;;;;16.50;10.50;;;8.50;99.90;;;;;;4864387;29;20440;-87
2022/01/29 02:48:13;;;;;;;18.57;11.00;;;8.60;99.90;;;;;;4906121;29;20503;-82
2022/01/29 02:55:00;;;;;;;18.97;11.10;;;8.20;99.90;;;;;;4866505;29;20765;-82
2022/01/29 03:04:55;;;;;;;;;;;;;;;;;;;;;
2022/01/29 03:07:51;;;;;;;15.57;9.70;;;8.30;99.90;;;;;;4920739;29;20465;-85
2022/01/29 03:10:47;;;;;;;17.80;10.60;;;8.20;99.90;;;;;;4927052;28;20469;-84
2022/01/29 03:17:46;;;;;;;16.83;10.33;;;8.20;99.90;;;;;;4910200;29;20493;-84
2022/01/29 03:27:28;;;;;;;20.20;11.10;;;8.30;99.90;;;;;;4934468;28;20482;-81
2022/01/29 03:30:15;;;;;;;16.20;10.93;;;8.20;99.90;;;;;;4996080;28;20482;-85
2022/01/29 03:32:57;;;;;;;17.43;10.73;;;8.20;99.90;;;;;;4977408;28;20495;-82
2022/01/29 03:36:02;;;;;;;16.17;10.67;;;8.40;99.90;;;;;;4987547;28;20462;-85
2022/01/29 03:38:52;;;;;;;16.93;10.00;;;8.60;99.90;;;;;;4987688;28;20443;-86
2022/01/29 03:41:44;;;;;;;16.30;10.20;;;8.30;99.90;;;;;;4955854;28;20463;-84
2022/01/29 03:44:38;;;;;;;16.70;11.33;;;8.20;99.90;;;;;;4981162;28;20546;-87
2022/01/29 03:51:40;;;;;;;15.90;10.30;;;8.00;99.90;;;;;;4977680;28;20503;-81
2022/01/29 03:57:47;;;;;;;13.60;8.87;;;8.00;99.90;;;;;;4989527;28;20483;-85
2022/01/29 04:00:43;;;;;;;17.30;10.20;;;8.10;99.90;;;;;;4980665;28;20460;-84
2022/01/29 04:03:41;;;;;;;18.13;10.30;;;8.00;99.90;;;;;;4978097;28;20467;-83
2022/01/29 04:06:41;;;;;;;15.83;8.77;;;8.00;99.90;;;;;;4976908;28;20499;-83
2022/01/29 04:09:56;;;;;;;;;;;;;;;;;;;;;
2022/01/29 04:16:42;;;;;;;11.03;7.87;;;8.20;99.90;;;;;;4997292;28;20467;-86
2022/01/29 04:23:16;;;;;;;11.90;8.73;;;8.10;99.90;;;;;;4927080;29;20553;-81
2022/01/29 04:26:49;;;;;;;10.53;7.63;;;8.10;99.90;;;;;;4902461;29;20480;-85
2022/01/29 04:33:31;;;;;;;9.10;6.17;;;8.20;99.90;;;;;;4986767;28;20510;-83
2022/01/29 04:36:54;;;;;;;9.23;6.30;;;8.10;99.90;;;;;;4979615;28;20475;-85
2022/01/29 04:43:20;;;;;;;9.97;7.07;;;8.30;99.90;;;;;;4996740;28;20458;-81
2022/01/29 04:46:28;;;;;;;8.03;6.07;;;8.20;99.90;;;;;;4991875;28;20506;-82
2022/01/29 04:53:19;;;;;;;;;;;;;;;;;;;;;
2022/01/29 04:57:01;;;;;;;9.80;6.37;;;8.20;99.90;;;;;;5005868;28;20483;-83
2022/01/29 05:00:29;;;;;;;;;;;;;;;;;;;;;
2022/01/29 05:03:48;;;;;;;7.67;5.17;;;8.50;99.90;;;;;;4995931;28;20459;-85
2022/01/29 05:06:44;;;;;;;6.60;5.13;;;8.30;99.90;;;;;;4962857;28;20514;-85
2022/01/29 05:09:49;;;;;;;8.17;5.60;;;8.40;99.90;;;;;;4998590;28;20494;-82
2022/01/29 05:12:34;;;;;;;7.87;5.60;;;8.40;99.90;;;;;;4998884;28;20452;-80
2022/01/29 05:28:01;;;;;;;6.97;5.50;;;8.60;99.90;;;;;;5006220;28;20488;-84
2022/01/29 05:31:20;;;;;;;;;;;;;;;;;;;;;
2022/01/29 05:34:15;;;;;;;5.73;4.27;;;8.30;99.90;;;;;;5004062;28;20486;-83
2022/01/29 05:37:22;;;;;;;5.80;4.40;;;8.40;99.90;;;;;;4977275;28;20478;-82
2022/01/29 05:43:47;;;;;;;4.93;4.00;;;8.30;99.90;;;;;;4977771;28;20452;-83
2022/01/29 05:49:52;;;;;;;7.07;3.60;;;8.20;99.90;;;;;;4999475;28;20558;-82
2022/01/29 05:53:17;;;;;;;4.60;3.70;;;8.20;99.90;;;;;;4995789;28;20444;-81
2022/01/29 05:55:52;;;;;;;3.37;2.90;;;8.40;99.90;;;;;;4975358;28;20462;-81
2022/01/29 05:58:51;;;;;;;4.07;3.03;;;8.40;99.90;;;;;;4963773;28;20506;-83
2022/01/29 06:01:48;;;;;;;2.90;2.57;;;8.30;99.90;;;;;;4971023;28;20446;-83
2022/01/29 06:08:32;;;;;;;4.57;2.93;;;8.30;99.90;;;;;;4948617;28;20479;-84
2022/01/29 06:15:06;;;;;;;;;;;;;;;;;;;;;
2022/01/29 06:18:26;;;;;;;3.67;3.20;;;8.30;99.90;;;;;;4982827;28;20494;-82
2022/01/29 06:21:19;;;;;;;3.43;3.10;;;8.20;99.90;;;;;;4980345;28;21072;-81
2022/01/29 06:27:34;;;;;;;4.43;2.30;;;8.20;99.90;;;;;;4936243;29;20514;-82
2022/01/29 06:31:16;;;;;;;2.70;2.43;;;8.30;99.90;;;;;;4899627;29;20554;-81
2022/01/29 06:34:21;;;;;;;4.17;3.03;;;8.20;99.90;;;;;;4920585;29;20475;-78
2022/01/29 06:37:29;;;;;;;4.83;3.10;;;8.30;99.90;;;;;;4995406;23;20481;-82
2022/01/29 06:40:48;;;;;;;3.57;3.27;;;8.30;99.90;;;;;;5026991;28;20458;-83
2022/01/29 06:44:11;;;;;;;;;;;;;;;;;;;;;
2022/01/29 06:50:59;;;;;;;3.63;2.50;;;8.30;99.90;;;;;;4965031;28;20529;-84
2022/01/29 06:54:17;;;;;;;4.57;3.20;;;8.30;99.90;;;;;;5043964;28;20464;-84
2022/01/29 07:03:59;;;;;;;3.90;2.80;;;8.30;99.90;;;;;;4943128;29;20501;-82
2022/01/29 07:07:10;;;;;;;3.93;3.53;;;8.50;99.90;;;;;;4923069;29;20495;-81
2022/01/29 07:14:00;;;;;;;4.23;3.40;;;8.50;99.90;;;;;;4888220;29;20456;-83
2022/01/29 07:17:16;;;;;;;3.27;2.73;;;8.50;99.90;;;;;;4936657;29;20487;-82
2022/01/29 07:21:09;;;;;;;3.60;3.30;;;8.50;99.90;;;;;;4829544;29;20459;-81
2022/01/29 07:24:19;;;;;;;3.37;3.07;;;8.50;99.90;;;;;;4798449;29;20606;-79
2022/01/29 07:27:29;;;;;;;3.13;2.83;;;8.50;99.90;;;;;;4801288;29;20642;-83
2022/01/29 07:30:53;;;;;;;3.70;3.30;;;8.70;99.90;;;;;;4775371;29;20472;-85
2022/01/29 07:41:07;;;;;;;3.17;2.73;;;8.60;99.90;;;;;;4975333;28;20509;-82
2022/01/29 07:44:33;;;;;;;3.33;3.00;;;9.00;99.90;;;;;;4974407;28;20517;-81
2022/01/29 07:55:04;;;;;;;2.70;2.50;;;8.80;99.90;;;;;;5004742;28;20470;-85
2022/01/29 08:06:14;;;;;;;3.30;3.00;;;8.70;99.90;;;;;;4914701;29;20493;-81
2022/01/29 08:09:36;;;;;;;3.80;3.50;;;8.80;99.90;;;;;;4866918;29;20490;-81
2022/01/29 08:12:56;;;;;;;3.17;2.87;;;8.80;99.90;;;;;;4861007;29;20442;-84
2022/01/29 08:19:32;;;;;;;4.13;3.30;;;8.80;99.90;;;;;;5417015;22;20489;-85
2022/01/29 08:22:31;;;;;;;3.67;3.37;;;8.90;99.90;;;;;;4982909;28;20485;-83
2022/01/29 08:36:33;;;;;;;3.30;3.00;;;9.00;99.90;;;;;;4956599;29;20410;-83
2022/01/29 08:51:48;;;;;;;;;;;;;;;;;;;;;
2022/01/29 08:55:03;;;;;;;3.90;3.50;;;9.00;99.90;;;;;;4840560;29;20515;-85
2022/01/29 08:58:46;;;;;;;3.60;3.30;;;9.20;99.90;;;;;;4874119;29;20497;-88
2022/01/29 09:02:22;;;;;;;3.80;3.50;;;9.30;99.90;;;;;;4899509;29;20470;-81
2022/01/29 09:24:20;;;;;;;;;;;;;;;;;;;;;
2022/01/29 10:04:55;;;;;;;2.90;2.63;;;9.90;99.90;;;;;;4924801;29;20532;-83
2022/01/29 10:08:31;;;;;;;;;;;;;;;;;;;;;
2022/01/29 10:16:01;;;;;;;;;;;;;;;;;;;;;
2022/01/29 10:23:17;;;;;;;2.00;1.90;;;10.10;99.90;;;;;;5018556;28;20428;-82
2022/01/29 10:26:41;;;;;;;2.00;1.90;;;10.10;99.90;;;;;;5005136;28;20486;-83
2022/01/29 10:48:15;;;;;;;2.10;1.90;;;10.40;99.90;;;;;;5004998;28;20559;-85
2022/01/29 10:51:32;;;;;;;2.03;1.93;;;10.50;99.90;;;;;;4974569;28;20450;-84
2022/01/29 10:54:55;;;;;;;2.27;1.50;;;10.40;99.90;;;;;;4962744;28;20467;-83
2022/01/29 11:08:52;;;;;;;1.30;1.30;;;10.70;99.90;;;;;;4939061;28;20618;-83
2022/01/29 11:16:15;;;;;;;1.57;1.47;;;10.80;99.90;;;;;;4895198;29;20512;-82
2022/01/29 11:19:29;;;;;;;1.40;1.30;;;10.80;99.90;;;;;;4886091;29;20510;-83
2022/01/29 11:25:39;;;;;;;1.20;1.20;;;10.60;99.90;;;;;;4902001;29;20495;-81
2022/01/29 11:28:48;;;;;;;3.67;1.40;;;10.60;99.90;;;;;;4896500;29;20662;-85
2022/01/29 11:32:35;;;;;;;1.10;1.00;;;10.60;99.90;;;;;;4884774;29;20489;-82
2022/01/29 11:36:08;;;;;;;;;;;;;;;;;;;;;
2022/01/29 11:39:35;;;;;;;1.23;1.10;;;10.70;99.90;;;;;;4918486;29;20937;-80
2022/01/29 11:42:53;;;;;;;1.60;1.50;;;10.80;99.90;;;;;;4887261;29;20440;-83
2022/01/29 11:46:31;;;;;;;;;;;;;;;;;;;;;
2022/01/29 11:49:41;;;;;;;;;;;;;;;;;;;;;
2022/01/29 11:53:09;;;;;;;1.07;0.97;;;10.70;99.90;;;;;;5009157;28;20474;-79
2022/01/29 12:00:17;;;;;;;1.40;1.27;;;11.00;99.90;;;;;;4978446;28;20460;-83
2022/01/29 12:06:24;;;;;;;1.20;1.17;;;10.60;99.90;;;;;;5001384;23;20480;-86
2022/01/29 12:12:56;;;;;;;;;;;;;;;;;;;;;
2022/01/29 12:16:00;;;;;;;1.70;1.60;;;10.40;99.90;;;;;;5005312;28;20477;-83
2022/01/29 12:19:11;;;;;;;1.90;1.80;;;10.50;99.90;;;;;;4988201;28;20501;-81
2022/01/29 12:22:21;;;;;;;1.50;1.40;;;10.70;99.90;;;;;;4925667;29;20502;-81
2022/01/29 12:25:27;;;;;;;2.07;1.93;;;10.80;99.90;;;;;;4898085;29;20479;-81
2022/01/29 12:28:35;;;;;;;2.37;2.17;;;10.90;99.90;;;;;;4927203;29;20482;-82
2022/01/29 12:31:34;;;;;;;2.10;1.90;;;10.90;99.90;;;;;;4918592;29;20435;-83
2022/01/29 12:34:52;;;;;;;;;;;;;;;;;;;;;
2022/01/29 12:38:07;;;;;;;1.53;1.43;;;11.00;99.90;;;;;;4923239;29;20518;-82
2022/01/29 12:41:44;;;;;;;2.50;1.60;;;10.90;99.90;;;;;;4942767;29;20448;-83
2022/01/29 12:45:00;;;;;;;1.30;1.17;;;10.90;99.90;;;;;;4918294;29;20450;-81
2022/01/29 12:48:36;;;;;;;;;;;;;;;;;;;;;
2022/01/29 12:52:10;;;;;;;;;;;;;;;;;;;;;
2022/01/29 12:55:01;;;;;;;2.60;1.40;;;11.00;99.90;;;;;;4950245;28;20958;-84
2022/01/29 12:57:57;;;;;;;1.27;1.17;;;10.90;99.90;;;;;;4992258;28;20498;-85
2022/01/29 13:00:56;;;;;;;2.53;1.50;;;11.40;99.90;;;;;;5006422;28;20527;-83
2022/01/29 13:07:49;;;;;;;1.63;1.50;;;11.30;99.90;;;;;;4979976;28;20913;-84
2022/01/29 13:10:54;;;;;;;1.90;1.73;;;11.30;99.90;;;;;;4896233;29;20459;-84
2022/01/29 13:14:12;;;;;;;2.50;2.10;;;11.00;99.90;;;;;;4839914;29;20497;-87
2022/01/29 13:24:44;;;;;;;;;;;;;;;;;;;;;
2022/01/29 13:27:56;;;;;;;1.63;1.53;;;11.10;99.90;;;;;;4938147;29;20485;-83
2022/01/29 13:31:20;;;;;;;1.23;1.13;;;11.30;99.90;;;;;;4911389;29;20601;-82
2022/01/29 13:35:02;;;;;;;2.33;2.13;;;11.50;99.90;;;;;;4930186;29;20625;-83
2022/01/29 13:39:09;;;;;;;;;;;;;;;;;;;;;
2022/01/29 13:42:36;;;;;;;1.90;1.80;;;11.30;99.90;;;;;;4912460;29;20544;-81
2022/01/29 13:49:13;;;;;;;;;;;;;;;;;;;;;
2022/01/29 13:52:22;;;;;;;1.93;1.83;;;11.10;99.90;;;;;;4980093;28;20968;-84
2022/01/29 13:59:52;;;;;;;;;;;;;;;;;;;;;
2022/01/29 14:03:13;;;;;;;6.03;2.50;;;11.30;99.90;;;;;;4974563;28;20530;-84
2022/01/29 14:09:57;;;;;;;3.03;1.70;;;11.40;99.90;;;;;;4977644;28;20467;-85
2022/01/29 14:12:45;;;;;;;3.80;1.90;;;11.40;99.90;;;;;;4985569;28;20432;-82
2022/01/29 14:15:35;;;;;;;2.40;1.73;;;11.40;99.90;;;;;;4987697;28;20458;-83
2022/01/29 14:18:39;;;;;;;2.20;1.93;;;11.40;99.90;;;;;;4985223;28;20459;-83
2022/01/29 14:21:16;;;;;;;2.87;2.10;;;11.50;99.90;;;;;;4999638;28;20530;-81
2022/01/29 14:24:20;;;;;;;4.20;1.93;;;11.50;99.90;;;;;;4978123;28;20501;-80
2022/01/29 14:27:45;;;;;;;1.93;1.83;;;11.40;99.90;;;;;;4925807;29;20570;-80
2022/01/29 14:34:02;;;;;;;4.27;2.40;;;11.50;99.90;;;;;;4933925;29;20472;-84
2022/01/29 14:36:59;;;;;;;3.87;2.07;;;11.50;99.90;;;;;;4891967;29;20472;-83
2022/01/29 14:39:56;;;;;;;3.37;2.10;;;11.50;99.90;;;;;;4987827;28;20876;-82
2022/01/29 14:43:04;;;;;;;4.23;2.53;;;11.60;99.90;;;;;;4959024;28;20541;-84
2022/01/29 14:50:30;;;;;;;2.97;2.43;;;11.60;99.90;;;;;;4887723;29;20444;-82
2022/01/29 14:53:25;;;;;;;2.60;2.23;;;11.60;99.90;;;;;;4886017;29;20541;-81
2022/01/29 15:03:09;;;;;;;;;;;;;;;;;;;;;
2022/01/29 15:06:20;;;;;;;5.13;2.73;;;11.60;99.90;;;;;;5031997;28;20438;-84
2022/01/29 15:09:35;;;;;;;3.70;2.40;;;11.60;99.90;;;;;;4988083;28;20486;-83
2022/01/29 15:12:52;;;;;;;3.80;2.13;;;11.60;99.90;;;;;;5010880;28;20447;-83
2022/01/29 15:16:04;;;;;;;8.00;2.50;;;11.60;99.90;;;;;;5008770;28;20886;-79
2022/01/29 15:18:38;;;;;;;2.93;2.20;;;11.80;99.90;;;;;;4999894;28;20471;-81
2022/01/29 15:21:29;;;;;;;3.80;2.80;;;11.60;99.90;;;;;;4919351;29;20461;-82
2022/01/29 15:28:25;;;;;;;3.67;2.50;;;11.60;99.90;;;;;;5060690;23;20510;-85
2022/01/29 15:31:23;;;;;;;3.40;2.30;;;11.60;99.90;;;;;;5009698;28;20475;-82
2022/01/29 15:34:24;;;;;;;2.90;2.10;;;11.70;99.90;;;;;;5019124;28;20474;-81
2022/01/29 15:37:09;;;;;;;6.33;2.80;;;11.60;99.90;;;;;;5016800;28;20479;-83
2022/01/29 15:40:04;;;;;;;3.83;2.50;;;11.60;99.90;;;;;;5028070;28;20799;-84
2022/01/29 15:43:00;;;;;;;3.80;2.93;;;11.60;99.90;;;;;;5014103;28;20534;-84
2022/01/29 15:46:02;;;;;;;3.23;2.50;;;11.60;99.90;;;;;;5011264;28;20446;-85
2022/01/29 15:56:24;;;;;;;3.30;2.87;;;11.50;99.90;;;;;;5042358;28;20472;-84
2022/01/29 15:59:26;;;;;;;4.83;2.50;;;11.60;99.90;;;;;;4969674;28;21048;-81
2022/01/29 16:02:17;;;;;;;3.57;2.80;;;11.50;99.90;;;;;;4946740;29;20467;-83
2022/01/29 16:04:54;;;;;;;4.10;3.03;;;11.50;99.90;;;;;;4963541;28;20457;-84
2022/01/29 16:07:42;;;;;;;5.37;3.03;;;11.50;99.90;;;;;;4978351;28;20488;-82
2022/01/29 16:14:08;;;;;;;4.63;3.07;;;11.40;99.90;;;;;;4975683;28;20455;-83
2022/01/29 16:17:20;;;;;;;8.00;3.23;;;11.40;99.90;;;;;;4966353;28;20517;-82
2022/01/29 16:20:32;;;;;;;9.97;4.40;;;11.40;99.90;;;;;;4958865;28;20528;-81
2022/01/29 16:27:02;;;;;;;4.53;3.80;;;11.20;99.90;;;;;;4962945;28;20570;-82
2022/01/29 16:30:16;;;;;;;4.30;3.53;;;11.30;99.90;;;;;;5002745;28;20504;-84
2022/01/29 16:32:56;;;;;;;12.27;6.67;;;11.20;99.90;;;;;;4989755;28;20457;-84
2022/01/29 16:36:16;;;;;;;4.80;3.93;;;11.20;99.90;;;;;;5026614;28;20441;-85
2022/01/29 16:39:38;;;;;;;3.83;3.50;;;11.20;99.90;;;;;;5055202;28;20490;-85
2022/01/29 16:42:45;;;;;;;4.00;3.57;;;11.10;99.90;;;;;;5012744;28;20459;-82
2022/01/29 16:46:33;;;;;;;4.50;4.07;;;11.10;99.90;;;;;;5018870;28;20457;-83
2022/01/29 16:52:59;;;;;;;3.73;3.40;;;11.10;99.90;;;;;;5047753;28;20436;-84
2022/01/29 16:55:45;;;;;;;5.20;3.60;;;11.10;99.90;;;;;;5018968;28;20463;-85
2022/01/29 17:01:57;;;;;;;4.43;3.23;;;11.20;99.90;;;;;;5031716;28;20493;-83
2022/01/29 17:05:07;;;;;;;3.30;3.07;;;11.10;99.90;;;;;;5029115;28;20471;-84
2022/01/29 17:08:07;;;;;;;3.63;3.23;;;11.10;99.90;;;;;;5016591;28;20490;-84
2022/01/29 17:11:44;;;;;;;4.23;3.77;;;11.20;99.90;;;;;;5024598;28;20440;-81
2022/01/29 17:14:25;;;;;;;5.00;4.23;;;11.20;99.90;;;;;;4967007;28;20461;-86
2022/01/29 17:17:22;;;;;;;4.97;4.30;;;11.30;99.90;;;;;;5024388;28;20982;-84
2022/01/29 17:24:23;;;;;;;4.60;2.97;;;11.20;99.90;;;;;;4988235;28;20426;-83
2022/01/29 17:27:26;;;;;;;3.30;2.80;;;11.30;99.90;;;;;;4954446;28;20502;-82
2022/01/29 17:30:34;;;;;;;3.13;2.83;;;11.20;99.90;;;;;;5011592;28;20604;-83
2022/01/29 17:33:27;;;;;;;3.67;3.30;;;11.30;99.90;;;;;;5006243;28;20430;-84
2022/01/29 17:36:34;;;;;;;4.30;2.90;;;11.30;99.90;;;;;;5031214;28;20512;-84
2022/01/29 17:39:40;;;;;;;4.43;3.27;;;11.30;99.90;;;;;;4986729;28;20446;-82
2022/01/29 17:42:32;;;;;;;5.73;4.73;;;11.30;99.90;;;;;;4997471;28;20959;-82
2022/01/29 17:45:38;;;;;;;7.40;6.20;;;11.30;99.90;;;;;;5025489;28;20449;-81
2022/01/29 17:48:48;;;;;;;10.40;4.70;;;11.40;99.90;;;;;;5004209;28;20570;-84
2022/01/29 17:51:56;;;;;;;6.03;3.80;;;11.40;99.90;;;;;;5014125;28;20945;-82
2022/01/29 17:55:10;;;;;;;3.83;3.13;;;11.50;99.90;;;;;;5017999;28;20469;-83
2022/01/29 17:58:50;;;;;;;4.13;3.83;;;11.50;99.90;;;;;;4963898;28;20473;-81
2022/01/29 18:08:40;;;;;;;4.63;3.50;;;11.50;99.90;;;;;;4933595;29;20481;-84
2022/01/29 18:15:07;;;;;;;5.47;3.53;;;11.70;99.90;;;;;;4913018;29;20560;-85
2022/01/29 18:17:42;;;;;;;6.20;4.87;;;11.60;99.90;;;;;;5003253;23;20531;-84
2022/01/29 18:21:20;;;;;;;4.43;3.50;;;11.80;99.90;;;;;;5038854;28;20458;-84
2022/01/29 18:24:29;;;;;;;4.03;3.33;;;11.60;99.90;;;;;;5034663;28;20485;-86
2022/01/29 18:30:28;;;;;;;5.30;3.70;;;11.70;99.90;;;;;;5021905;28;20455;-83
2022/01/29 18:32:59;;;;;;;6.30;4.10;;;11.60;99.90;;;;;;5036717;28;20469;-83
2022/01/29 18:36:06;;;;;;;3.80;3.50;;;11.60;99.90;;;;;;5013383;28;20444;-89
2022/01/29 18:38:47;;;;;;;8.60;3.80;;;11.60;99.90;;;;;;5031546;28;20462;-84
2022/01/29 18:42:19;;;;;;;;;;;;;;;;;;;;;
2022/01/29 18:45:23;;;;;;;3.97;3.50;;;11.70;99.90;;;;;;5018159;28;20424;-83
2022/01/29 18:48:30;;;;;;;7.43;4.10;;;11.70;99.90;;;;;;5028793;28;20472;-82
2022/01/29 18:51:15;;;;;;;8.60;4.60;;;11.70;99.90;;;;;;5024631;28;20561;-81
2022/01/29 18:54:16;;;;;;;6.30;4.13;;;11.70;99.90;;;;;;5027686;28;20444;-83
2022/01/29 18:57:37;;;;;;;6.37;5.00;;;11.70;99.90;;;;;;5033425;28;20478;-79
2022/01/29 19:00:43;;;;;;;6.73;5.23;;;11.70;99.90;;;;;;5019137;28;20463;-81
2022/01/29 19:07:00;;;;;;;8.57;4.67;;;11.60;99.90;;;;;;4965264;28;20476;-82
2022/01/29 19:09:44;;;;;;;8.13;4.57;;;11.60;99.90;;;;;;4967678;28;20932;-82
2022/01/29 19:24:57;;;;;;;8.90;4.50;;;11.60;99.90;;;;;;4995286;28;20404;-83
2022/01/29 19:28:17;;;;;;;6.70;4.57;;;11.60;99.90;;;;;;5005077;28;20609;-82
2022/01/29 19:31:23;;;;;;;5.50;4.23;;;11.60;99.90;;;;;;5043857;28;20426;-82
2022/01/29 19:35:00;;;;;;;4.80;4.20;;;11.60;99.90;;;;;;5040806;28;20430;-83
2022/01/29 19:37:53;;;;;;;6.10;4.37;;;11.60;99.90;;;;;;5023816;28;20482;-82
2022/01/29 19:40:36;;;;;;;7.60;5.23;;;11.60;99.90;;;;;;5023564;28;20495;-82
2022/01/29 19:43:27;;;;;;;7.63;4.60;;;11.70;99.90;;;;;;5041613;28;20478;-83
2022/01/29 19:46:24;;;;;;;6.23;4.50;;;11.60;99.90;;;;;;5005642;28;20439;-83
2022/01/29 19:49:06;;;;;;;16.10;5.17;;;11.50;99.90;;;;;;5019175;28;20442;-83
2022/01/29 19:52:08;;;;;;;8.17;3.67;;;11.60;99.90;;;;;;5041356;28;20449;-86
2022/01/29 19:54:48;;;;;;;11.37;4.57;;;11.50;99.90;;;;;;5036012;28;20458;-85
2022/01/29 19:57:32;;;;;;;7.60;4.07;;;11.40;99.90;;;;;;5019787;28;20458;-87
2022/01/29 20:04:09;;;;;;;6.87;4.30;;;11.30;99.90;;;;;;5036904;28;20417;-86
2022/01/29 20:10:27;;;;;;;11.77;3.90;;;11.40;99.90;;;;;;5040402;28;20548;-84
2022/01/29 20:16:26;;;;;;;11.80;5.47;;;11.30;99.90;;;;;;4998430;28;20449;-82
2022/01/29 20:19:47;;;;;;;16.70;4.03;;;11.10;99.90;;;;;;4931709;29;20484;-84
2022/01/29 20:22:28;;;;;;;10.97;3.57;;;11.20;99.90;;;;;;4955941;29;20460;-82
2022/01/29 20:25:19;;;;;;;10.10;4.10;;;11.10;99.90;;;;;;4926720;29;20942;-82
2022/01/29 20:28:10;;;;;;;13.93;3.27;;;11.00;99.90;;;;;;5008566;22;20489;-81
2022/01/29 20:34:24;;;;;;;11.27;3.10;;;11.00;99.90;;;;;;5042434;28;20453;-83
2022/01/29 20:37:22;;;;;;;11.60;3.43;;;11.00;99.90;;;;;;5026986;28;20476;-85
2022/01/29 20:40:24;;;;;;;11.40;3.30;;;10.90;99.90;;;;;;5021737;28;20985;-82
2022/01/29 20:43:05;;;;;;;12.27;2.80;;;10.90;99.90;;;;;;5023601;28;20813;-80
2022/01/29 20:45:38;;;;;;;13.03;4.20;;;10.80;99.90;;;;;;5031707;28;20480;-84
2022/01/29 20:48:45;;;;;;;10.53;4.00;;;10.80;99.90;;;;;;5024197;28;20485;-85
2022/01/29 20:51:42;;;;;;;6.90;3.50;;;10.80;99.90;;;;;;4954098;29;20451;-83
2022/01/29 20:54:27;;;;;;;9.80;3.27;;;10.70;99.90;;;;;;4937846;29;20461;-83
2022/01/29 20:57:40;;;;;;;10.73;3.80;;;10.70;99.90;;;;;;4951802;29;20473;-83
2022/01/29 21:00:28;;;;;;;13.20;3.07;;;10.70;99.90;;;;;;4948725;29;20505;-79
2022/01/29 21:06:35;;;;;;;12.13;3.57;;;10.70;99.90;;;;;;4953403;29;20461;-82
2022/01/29 21:13:21;;;;;;;18.57;4.20;;;10.60;99.90;;;;;;4906041;29;20440;-82
2022/01/29 21:16:22;;;;;;;12.33;3.87;;;10.60;99.90;;;;;;4884899;29;20474;-82
2022/01/29 21:29:31;;;;;;;10.47;4.10;;;10.50;99.90;;;;;;4909818;28;20648;-83
2022/01/29 21:40:02;;;;;;;11.23;3.80;;;10.50;99.90;;;;;;4900133;29;20501;-84
2022/01/29 21:43:17;;;;;;;13.37;4.63;;;10.40;99.90;;;;;;4901565;29;20474;-86
2022/01/29 21:46:05;;;;;;;17.27;5.60;;;10.40;99.90;;;;;;4922753;29;20473;-83
2022/01/29 21:48:59;;;;;;;12.47;3.73;;;10.40;99.90;;;;;;4899623;29;20510;-84
2022/01/29 21:51:50;;;;;;;12.13;4.43;;;10.40;99.90;;;;;;4899311;29;20493;-81
2022/01/29 21:54:47;;;;;;;14.83;4.23;;;10.30;99.90;;;;;;4974366;28;20467;-84
2022/01/29 21:58:16;;;;;;;11.67;4.10;;;10.30;99.90;;;;;;4976524;28;20507;-83
2022/01/29 22:01:13;;;;;;;10.00;4.60;;;10.30;99.90;;;;;;4944554;29;20435;-81
2022/01/29 22:04:33;;;;;;;14.20;4.87;;;10.40;99.90;;;;;;4989821;28;20495;-81
2022/01/29 22:10:26;;;;;;;10.73;4.03;;;10.30;99.90;;;;;;5005388;28;20517;-82
2022/01/29 22:13:46;;;;;;;9.87;5.43;;;10.40;99.90;;;;;;5002230;28;20526;-84
2022/01/29 22:19:07;;;;;;;11.83;4.13;;;10.30;99.90;;;;;;5086035;23;20495;-82
2022/01/29 22:21:52;;;;;;;15.13;5.20;;;10.30;99.90;;;;;;5061512;28;20959;-82
2022/01/29 22:25:06;;;;;;;;;;;;;;;;;;;;;
2022/01/29 22:28:39;;;;;;;11.43;4.13;;;10.30;99.90;;;;;;5035053;28;20503;-83
2022/01/29 22:31:26;;;;;;;13.83;4.53;;;10.20;99.90;;;;;;5042843;28;20441;-83
2022/01/29 22:34:34;;;;;;;12.90;4.20;;;10.30;99.90;;;;;;5046345;28;20517;-83
2022/01/29 22:37:33;;;;;;;10.83;3.50;;;10.20;99.90;;;;;;5025010;28;20459;-83
2022/01/29 22:40:51;;;;;;;10.13;3.57;;;10.20;99.90;;;;;;5035805;28;20485;-82
2022/01/29 22:43:28;;;;;;;17.10;3.50;;;10.20;99.90;;;;;;5032241;28;20460;-82
2022/01/29 22:46:25;;;;;;;13.63;3.87;;;10.20;99.90;;;;;;5039376;28;20597;-82
2022/01/29 22:52:24;;;;;;;10.53;3.47;;;10.10;99.90;;;;;;5039918;28;20480;-81
2022/01/29 22:55:40;;;;;;;11.43;3.17;;;10.20;99.90;;;;;;5040454;28;20470;-83
2022/01/29 23:04:27;;;;;;;12.97;4.10;;;10.10;99.90;;;;;;5080179;28;20484;-84
2022/01/29 23:07:46;;;;;;;9.70;3.10;;;10.30;99.90;;;;;;5059140;28;20502;-83
2022/01/29 23:17:22;;;;;;;10.63;3.40;;;10.00;99.90;;;;;;5062178;28;20495;-82
2022/01/29 23:20:29;;;;;;;14.47;4.07;;;10.00;99.90;;;;;;5043370;28;20456;-83
2022/01/29 23:23:38;;;;;;;9.30;3.43;;;10.00;99.90;;;;;;5046996;28;20449;-84
2022/01/29 23:32:46;;;;;;;;;;;;;;;;;;;;;
2022/01/29 23:35:56;;;;;;;14.57;4.70;;;9.80;99.90;;;;;;5051027;28;20460;-84
2022/01/29 23:39:02;;;;;;;8.53;3.67;;;9.70;99.90;;;;;;5038948;28;20543;-86
2022/01/29 23:50:47;;;;;;;14.07;4.50;;;9.50;99.90;;;;;;5047872;28;20435;-82
2022/01/29 23:53:54;;;;;;;13.00;4.33;;;9.50;99.90;;;;;;5056276;28;20496;-86
2022/01/29 23:56:34;;;;;;;15.57;3.80;;;9.60;99.90;;;;;;5072323;28;20463;-84
2022/01/29 23:59:42;;;;;;;19.37;4.73;;;9.50;99.90;;;;;;5039219;28;20531;-83
